sensor_id;sensor_type;location;lat;lon;timestamp;P1;durP1;ratioP1;P2;durP2;ratioP2
19566;SDS011;9930;49.240;8.548;2022-07-24T00:01:21;7.80;;;7.13;;
19566;SDS011;9930;49.240;8.548;2022-07-24T00:03:47;7.07;;;6.57;;
19566;SDS011;9930;49.240;8.548;2022-07-24T00:06:14;8.15;;;7.55;;
19566;SDS011;9930;49.240;8.548;2022-07-24T00:08:42;7.72;;;7.13;;
19566;SDS011;9930;49.240;8.548;2022-07-24T00:11:10;6.85;;;6.35;;
19566;SDS011;9930;49.240;8.548;2022-07-24T00:13:36;7.82;;;7.22;;
19566;SDS011;9930;49.240;8.548;2022-07-24T00:16:06;7.75;;;7.05;;
19566;SDS011;9930;49.240;8.548;2022-07-24T00:18:32;7.95;;;7.25;;
19566;SDS011;9930;49.240;8.548;2022-07-24T00:20:59;7.72;;;7.13;;
19566;SDS011;9930;49.240;8.548;2022-07-24T00:23:32;8.10;;;7.50;;
19566;SDS011;9930;49.240;8.548;2022-07-24T00:26:00;7.38;;;6.72;;
19566;SDS011;9930;49.240;8.548;2022-07-24T00:28:26;7.47;;;6.95;;
19566;SDS011;9930;49.240;8.548;2022-07-24T00:30:52;7.97;;;7.30;;
19566;SDS011;9930;49.240;8.548;2022-07-24T00:33:19;7.38;;;6.78;;
19566;SDS011;9930;49.240;8.548;2022-07-24T00:35:47;7.60;;;6.90;;
19566;SDS011;9930;49.240;8.548;2022-07-24T00:38:13;7.72;;;7.13;;
19566;SDS011;9930;49.240;8.548;2022-07-24T00:40:39;7.68;;;7.03;;
19566;SDS011;9930;49.240;8.548;2022-07-24T00:43:07;7.75;;;7.15;;
19566;SDS011;9930;49.240;8.548;2022-07-24T00:45:32;7.93;;;7.28;;
19566;SDS011;9930;49.240;8.548;2022-07-24T00:48:01;7.03;;;6.50;;
19566;SDS011;9930;49.240;8.548;2022-07-24T00:50:27;7.65;;;6.95;;
19566;SDS011;9930;49.240;8.548;2022-07-24T00:52:57;7.13;;;6.53;;
19566;SDS011;9930;49.240;8.548;2022-07-24T00:55:26;7.57;;;6.97;;
19566;SDS011;9930;49.240;8.548;2022-07-24T00:57:56;7.57;;;6.97;;
19566;SDS011;9930;49.240;8.548;2022-07-24T01:00:23;7.60;;;7.03;;
19566;SDS011;9930;49.240;8.548;2022-07-24T01:02:53;7.80;;;7.20;;
19566;SDS011;9930;49.240;8.548;2022-07-24T01:05:29;8.02;;;7.32;;
19566;SDS011;9930;49.240;8.548;2022-07-24T01:07:55;7.50;;;6.95;;
19566;SDS011;9930;49.240;8.548;2022-07-24T01:10:25;7.65;;;7.03;;
19566;SDS011;9930;49.240;8.548;2022-07-24T01:12:59;7.63;;;7.05;;
19566;SDS011;9930;49.240;8.548;2022-07-24T01:15:27;7.03;;;6.53;;
19566;SDS011;9930;49.240;8.548;2022-07-24T01:17:53;8.15;;;7.55;;
19566;SDS011;9930;49.240;8.548;2022-07-24T01:20:22;7.88;;;7.28;;
19566;SDS011;9930;49.240;8.548;2022-07-24T01:23:00;7.82;;;7.13;;
19566;SDS011;9930;49.240;8.548;2022-07-24T01:25:26;7.60;;;7.07;;
19566;SDS011;9930;49.240;8.548;2022-07-24T01:27:53;8.38;;;7.68;;
19566;SDS011;9930;49.240;8.548;2022-07-24T01:30:23;8.10;;;7.50;;
19566;SDS011;9930;49.240;8.548;2022-07-24T01:32:51;7.43;;;6.80;;
19566;SDS011;9930;49.240;8.548;2022-07-24T01:35:21;7.07;;;6.53;;
19566;SDS011;9930;49.240;8.548;2022-07-24T01:37:50;7.85;;;7.15;;
19566;SDS011;9930;49.240;8.548;2022-07-24T01:40:19;7.72;;;7.13;;
19566;SDS011;9930;49.240;8.548;2022-07-24T01:42:48;6.88;;;6.38;;
19566;SDS011;9930;49.240;8.548;2022-07-24T01:45:14;8.15;;;7.45;;
19566;SDS011;9930;49.240;8.548;2022-07-24T01:47:41;8.25;;;7.65;;
19566;SDS011;9930;49.240;8.548;2022-07-24T01:50:08;7.47;;;6.97;;
19566;SDS011;9930;49.240;8.548;2022-07-24T01:52:36;7.45;;;6.90;;
19566;SDS011;9930;49.240;8.548;2022-07-24T01:55:05;7.63;;;7.03;;
19566;SDS011;9930;49.240;8.548;2022-07-24T01:57:31;7.78;;;7.07;;
19566;SDS011;9930;49.240;8.548;2022-07-24T01:59:58;7.80;;;7.20;;
19566;SDS011;9930;49.240;8.548;2022-07-24T02:02:26;7.13;;;6.60;;
19566;SDS011;9930;49.240;8.548;2022-07-24T02:04:53;7.90;;;7.30;;
19566;SDS011;9930;49.240;8.548;2022-07-24T02:07:23;8.15;;;7.55;;
19566;SDS011;9930;49.240;8.548;2022-07-24T02:09:50;8.27;;;7.57;;
19566;SDS011;9930;49.240;8.548;2022-07-24T02:12:19;8.30;;;7.60;;
19566;SDS011;9930;49.240;8.548;2022-07-24T02:14:46;8.45;;;7.75;;
19566;SDS011;9930;49.240;8.548;2022-07-24T02:17:12;7.25;;;6.72;;
19566;SDS011;9930;49.240;8.548;2022-07-24T02:19:38;8.35;;;7.75;;
19566;SDS011;9930;49.240;8.548;2022-07-24T02:22:04;8.23;;;7.60;;
19566;SDS011;9930;49.240;8.548;2022-07-24T02:24:29;7.93;;;7.32;;
19566;SDS011;9930;49.240;8.548;2022-07-24T02:26:55;8.90;;;8.15;;
19566;SDS011;9930;49.240;8.548;2022-07-24T02:29:21;8.35;;;7.65;;
19566;SDS011;9930;49.240;8.548;2022-07-24T02:31:49;8.40;;;7.72;;
19566;SDS011;9930;49.240;8.548;2022-07-24T02:34:17;8.82;;;8.05;;
19566;SDS011;9930;49.240;8.548;2022-07-24T02:36:42;8.32;;;7.63;;
19566;SDS011;9930;49.240;8.548;2022-07-24T02:39:08;8.32;;;7.63;;
19566;SDS011;9930;49.240;8.548;2022-07-24T02:41:36;8.85;;;8.23;;
19566;SDS011;9930;49.240;8.548;2022-07-24T02:44:03;7.75;;;7.15;;
19566;SDS011;9930;49.240;8.548;2022-07-24T02:46:29;8.75;;;8.05;;
19566;SDS011;9930;49.240;8.548;2022-07-24T02:48:54;8.50;;;7.80;;
19566;SDS011;9930;49.240;8.548;2022-07-24T02:51:22;8.90;;;8.23;;
19566;SDS011;9930;49.240;8.548;2022-07-24T02:53:48;8.52;;;7.82;;
19566;SDS011;9930;49.240;8.548;2022-07-24T02:56:14;8.48;;;7.88;;
19566;SDS011;9930;49.240;8.548;2022-07-24T02:58:39;8.27;;;7.70;;
19566;SDS011;9930;49.240;8.548;2022-07-24T03:01:05;9.35;;;8.50;;
19566;SDS011;9930;49.240;8.548;2022-07-24T03:03:31;8.50;;;7.82;;
19566;SDS011;9930;49.240;8.548;2022-07-24T03:05:59;8.77;;;8.05;;
19566;SDS011;9930;49.240;8.548;2022-07-24T03:08:29;8.10;;;7.50;;
19566;SDS011;9930;49.240;8.548;2022-07-24T03:10:55;8.23;;;7.63;;
19566;SDS011;9930;49.240;8.548;2022-07-24T03:13:24;9.13;;;8.35;;
19566;SDS011;9930;49.240;8.548;2022-07-24T03:15:50;8.85;;;8.15;;
19566;SDS011;9930;49.240;8.548;2022-07-24T03:18:19;8.18;;;7.47;;
19566;SDS011;9930;49.240;8.548;2022-07-24T03:20:44;8.85;;;8.15;;
19566;SDS011;9930;49.240;8.548;2022-07-24T03:23:12;8.50;;;7.80;;
19566;SDS011;9930;49.240;8.548;2022-07-24T03:25:40;8.63;;;8.02;;
19566;SDS011;9930;49.240;8.548;2022-07-24T03:28:06;8.13;;;7.53;;
19566;SDS011;9930;49.240;8.548;2022-07-24T03:30:34;9.02;;;8.18;;
19566;SDS011;9930;49.240;8.548;2022-07-24T03:32:59;8.75;;;8.05;;
19566;SDS011;9930;49.240;8.548;2022-07-24T03:35:25;8.93;;;8.20;;
19566;SDS011;9930;49.240;8.548;2022-07-24T03:37:51;8.95;;;8.25;;
19566;SDS011;9930;49.240;8.548;2022-07-24T03:40:19;8.43;;;7.82;;
19566;SDS011;9930;49.240;8.548;2022-07-24T03:42:45;8.48;;;7.88;;
19566;SDS011;9930;49.240;8.548;2022-07-24T03:45:11;9.07;;;8.38;;
19566;SDS011;9930;49.240;8.548;2022-07-24T03:47:39;8.93;;;8.23;;
19566;SDS011;9930;49.240;8.548;2022-07-24T03:50:07;8.55;;;7.90;;
19566;SDS011;9930;49.240;8.548;2022-07-24T03:52:36;8.20;;;7.50;;
19566;SDS011;9930;49.240;8.548;2022-07-24T03:55:04;8.32;;;7.68;;
19566;SDS011;9930;49.240;8.548;2022-07-24T03:57:30;7.90;;;7.30;;
19566;SDS011;9930;49.240;8.548;2022-07-24T03:59:56;8.57;;;7.88;;
19566;SDS011;9930;49.240;8.548;2022-07-24T04:02:25;8.30;;;7.70;;
19566;SDS011;9930;49.240;8.548;2022-07-24T04:04:52;7.93;;;7.20;;
19566;SDS011;9930;49.240;8.548;2022-07-24T04:07:20;8.70;;;8.00;;
19566;SDS011;9930;49.240;8.548;2022-07-24T04:09:46;8.85;;;8.15;;
19566;SDS011;9930;49.240;8.548;2022-07-24T04:12:11;8.00;;;7.40;;
19566;SDS011;9930;49.240;8.548;2022-07-24T04:14:40;8.52;;;7.88;;
19566;SDS011;9930;49.240;8.548;2022-07-24T04:17:05;8.20;;;7.60;;
19566;SDS011;9930;49.240;8.548;2022-07-24T04:19:33;8.73;;;8.02;;
19566;SDS011;9930;49.240;8.548;2022-07-24T04:21:59;8.20;;;7.50;;
19566;SDS011;9930;49.240;8.548;2022-07-24T04:24:28;9.00;;;8.30;;
19566;SDS011;9930;49.240;8.548;2022-07-24T04:26:56;9.23;;;8.43;;
19566;SDS011;9930;49.240;8.548;2022-07-24T04:29:22;8.23;;;7.63;;
19566;SDS011;9930;49.240;8.548;2022-07-24T04:31:51;8.55;;;7.95;;
19566;SDS011;9930;49.240;8.548;2022-07-24T04:34:19;8.07;;;7.47;;
19566;SDS011;9930;49.240;8.548;2022-07-24T04:36:47;8.07;;;7.43;;
19566;SDS011;9930;49.240;8.548;2022-07-24T04:39:13;8.52;;;7.82;;
19566;SDS011;9930;49.240;8.548;2022-07-24T04:41:41;8.70;;;7.90;;
19566;SDS011;9930;49.240;8.548;2022-07-24T04:44:09;8.27;;;7.68;;
19566;SDS011;9930;49.240;8.548;2022-07-24T04:46:35;8.80;;;8.10;;
19566;SDS011;9930;49.240;8.548;2022-07-24T04:49:01;9.25;;;8.55;;
19566;SDS011;9930;49.240;8.548;2022-07-24T04:51:26;8.18;;;7.57;;
19566;SDS011;9930;49.240;8.548;2022-07-24T04:53:52;8.55;;;7.93;;
19566;SDS011;9930;49.240;8.548;2022-07-24T04:56:21;8.80;;;8.10;;
19566;SDS011;9930;49.240;8.548;2022-07-24T04:58:47;9.30;;;8.50;;
19566;SDS011;9930;49.240;8.548;2022-07-24T05:01:13;9.18;;;8.48;;
19566;SDS011;9930;49.240;8.548;2022-07-24T05:03:40;8.95;;;8.25;;
19566;SDS011;9930;49.240;8.548;2022-07-24T05:06:08;9.45;;;8.65;;
19566;SDS011;9930;49.240;8.548;2022-07-24T05:08:34;9.02;;;8.23;;
19566;SDS011;9930;49.240;8.548;2022-07-24T05:10:59;9.90;;;9.10;;
19566;SDS011;9930;49.240;8.548;2022-07-24T05:13:25;9.75;;;9.00;;
19566;SDS011;9930;49.240;8.548;2022-07-24T05:15:51;8.98;;;8.27;;
19566;SDS011;9930;49.240;8.548;2022-07-24T05:18:20;8.70;;;8.00;;
19566;SDS011;9930;49.240;8.548;2022-07-24T05:20:46;8.65;;;7.95;;
19566;SDS011;9930;49.240;8.548;2022-07-24T05:23:12;8.50;;;7.80;;
19566;SDS011;9930;49.240;8.548;2022-07-24T05:25:37;8.15;;;7.55;;
19566;SDS011;9930;49.240;8.548;2022-07-24T05:28:03;9.13;;;8.32;;
19566;SDS011;9930;49.240;8.548;2022-07-24T05:30:29;9.27;;;8.48;;
19566;SDS011;9930;49.240;8.548;2022-07-24T05:32:55;9.43;;;8.68;;
19566;SDS011;9930;49.240;8.548;2022-07-24T05:35:21;9.05;;;8.32;;
19566;SDS011;9930;49.240;8.548;2022-07-24T05:37:47;9.20;;;8.43;;
19566;SDS011;9930;49.240;8.548;2022-07-24T05:40:15;8.25;;;7.65;;
19566;SDS011;9930;49.240;8.548;2022-07-24T05:42:41;8.98;;;8.32;;
19566;SDS011;9930;49.240;8.548;2022-07-24T05:45:06;9.10;;;8.40;;
19566;SDS011;9930;49.240;8.548;2022-07-24T05:47:39;7.85;;;7.25;;
19566;SDS011;9930;49.240;8.548;2022-07-24T05:50:09;8.55;;;7.90;;
19566;SDS011;9930;49.240;8.548;2022-07-24T05:52:37;8.95;;;8.35;;
19566;SDS011;9930;49.240;8.548;2022-07-24T05:55:04;8.32;;;7.63;;
19566;SDS011;9930;49.240;8.548;2022-07-24T05:57:33;8.35;;;7.65;;
19566;SDS011;9930;49.240;8.548;2022-07-24T06:00:02;8.60;;;7.82;;
19566;SDS011;9930;49.240;8.548;2022-07-24T06:02:29;8.75;;;8.02;;
19566;SDS011;9930;49.240;8.548;2022-07-24T06:04:54;8.55;;;7.85;;
19566;SDS011;9930;49.240;8.548;2022-07-24T06:07:20;8.00;;;7.43;;
19566;SDS011;9930;49.240;8.548;2022-07-24T06:09:46;8.13;;;7.45;;
19566;SDS011;9930;49.240;8.548;2022-07-24T06:12:12;8.30;;;7.60;;
19566;SDS011;9930;49.240;8.548;2022-07-24T06:14:37;8.45;;;7.75;;
19566;SDS011;9930;49.240;8.548;2022-07-24T06:17:06;8.07;;;7.47;;
19566;SDS011;9930;49.240;8.548;2022-07-24T06:19:31;8.32;;;7.50;;
19566;SDS011;9930;49.240;8.548;2022-07-24T06:21:57;7.68;;;7.18;;
19566;SDS011;9930;49.240;8.548;2022-07-24T06:24:25;7.82;;;7.22;;
19566;SDS011;9930;49.240;8.548;2022-07-24T06:26:51;7.75;;;7.18;;
19566;SDS011;9930;49.240;8.548;2022-07-24T06:29:17;7.65;;;7.05;;
19566;SDS011;9930;49.240;8.548;2022-07-24T06:31:42;7.20;;;6.70;;
19566;SDS011;9930;49.240;8.548;2022-07-24T06:34:08;7.35;;;6.85;;
19566;SDS011;9930;49.240;8.548;2022-07-24T06:36:37;7.95;;;7.45;;
19566;SDS011;9930;49.240;8.548;2022-07-24T06:39:04;7.32;;;6.82;;
19566;SDS011;9930;49.240;8.548;2022-07-24T06:41:30;7.60;;;7.00;;
19566;SDS011;9930;49.240;8.548;2022-07-24T06:43:56;7.88;;;7.28;;
19566;SDS011;9930;49.240;8.548;2022-07-24T06:46:25;7.35;;;6.65;;
19566;SDS011;9930;49.240;8.548;2022-07-24T06:48:56;8.05;;;7.45;;
19566;SDS011;9930;49.240;8.548;2022-07-24T06:51:22;7.38;;;6.78;;
19566;SDS011;9930;49.240;8.548;2022-07-24T06:53:50;7.63;;;7.03;;
19566;SDS011;9930;49.240;8.548;2022-07-24T06:56:16;7.72;;;7.15;;
19566;SDS011;9930;49.240;8.548;2022-07-24T06:58:42;8.07;;;7.38;;
19566;SDS011;9930;49.240;8.548;2022-07-24T07:01:07;8.18;;;7.57;;
19566;SDS011;9930;49.240;8.548;2022-07-24T07:03:33;7.90;;;7.30;;
19566;SDS011;9930;49.240;8.548;2022-07-24T07:05:59;7.85;;;7.25;;
19566;SDS011;9930;49.240;8.548;2022-07-24T07:08:25;8.13;;;7.53;;
19566;SDS011;9930;49.240;8.548;2022-07-24T07:10:51;7.80;;;7.20;;
19566;SDS011;9930;49.240;8.548;2022-07-24T07:13:17;8.13;;;7.45;;
19566;SDS011;9930;49.240;8.548;2022-07-24T07:15:42;7.38;;;6.88;;
19566;SDS011;9930;49.240;8.548;2022-07-24T07:18:08;8.05;;;7.45;;
19566;SDS011;9930;49.240;8.548;2022-07-24T07:20:34;7.65;;;7.03;;
19566;SDS011;9930;49.240;8.548;2022-07-24T07:22:59;7.85;;;7.25;;
19566;SDS011;9930;49.240;8.548;2022-07-24T07:25:25;7.93;;;7.32;;
19566;SDS011;9930;49.240;8.548;2022-07-24T07:27:51;7.63;;;7.03;;
19566;SDS011;9930;49.240;8.548;2022-07-24T07:30:19;7.70;;;7.20;;
19566;SDS011;9930;49.240;8.548;2022-07-24T07:32:47;6.82;;;6.32;;
19566;SDS011;9930;49.240;8.548;2022-07-24T07:35:16;7.03;;;6.43;;
19566;SDS011;9930;49.240;8.548;2022-07-24T07:37:44;8.07;;;7.38;;
19566;SDS011;9930;49.240;8.548;2022-07-24T07:40:11;7.60;;;7.00;;
19566;SDS011;9930;49.240;8.548;2022-07-24T07:42:37;8.32;;;7.72;;
19566;SDS011;9930;49.240;8.548;2022-07-24T07:45:02;7.57;;;6.97;;
19566;SDS011;9930;49.240;8.548;2022-07-24T07:47:29;7.60;;;7.00;;
19566;SDS011;9930;49.240;8.548;2022-07-24T07:49:55;7.90;;;7.30;;
19566;SDS011;9930;49.240;8.548;2022-07-24T07:52:20;7.00;;;6.43;;
19566;SDS011;9930;49.240;8.548;2022-07-24T07:54:46;8.10;;;7.55;;
19566;SDS011;9930;49.240;8.548;2022-07-24T07:57:12;8.13;;;7.43;;
19566;SDS011;9930;49.240;8.548;2022-07-24T07:59:38;7.90;;;7.30;;
19566;SDS011;9930;49.240;8.548;2022-07-24T08:02:03;7.80;;;7.30;;
19566;SDS011;9930;49.240;8.548;2022-07-24T08:04:31;7.43;;;6.85;;
19566;SDS011;9930;49.240;8.548;2022-07-24T08:06:57;7.53;;;6.93;;
19566;SDS011;9930;49.240;8.548;2022-07-24T08:09:25;7.32;;;6.82;;
19566;SDS011;9930;49.240;8.548;2022-07-24T08:11:51;7.38;;;6.88;;
19566;SDS011;9930;49.240;8.548;2022-07-24T08:14:19;7.95;;;7.35;;
19566;SDS011;9930;49.240;8.548;2022-07-24T08:16:45;7.78;;;7.18;;
19566;SDS011;9930;49.240;8.548;2022-07-24T08:19:13;6.90;;;6.40;;
19566;SDS011;9930;49.240;8.548;2022-07-24T08:21:39;7.38;;;6.82;;
19566;SDS011;9930;49.240;8.548;2022-07-24T08:24:05;7.00;;;6.47;;
19566;SDS011;9930;49.240;8.548;2022-07-24T08:26:31;6.85;;;6.35;;
19566;SDS011;9930;49.240;8.548;2022-07-24T08:28:57;6.95;;;6.45;;
19566;SDS011;9930;49.240;8.548;2022-07-24T08:31:27;6.88;;;6.38;;
19566;SDS011;9930;49.240;8.548;2022-07-24T08:33:55;7.05;;;6.55;;
19566;SDS011;9930;49.240;8.548;2022-07-24T08:36:21;6.93;;;6.43;;
19566;SDS011;9930;49.240;8.548;2022-07-24T08:38:47;6.85;;;6.35;;
19566;SDS011;9930;49.240;8.548;2022-07-24T08:41:13;6.80;;;6.30;;
19566;SDS011;9930;49.240;8.548;2022-07-24T08:43:43;7.22;;;6.63;;
19566;SDS011;9930;49.240;8.548;2022-07-24T08:46:09;6.53;;;6.13;;
19566;SDS011;9930;49.240;8.548;2022-07-24T08:48:43;6.40;;;5.90;;
19566;SDS011;9930;49.240;8.548;2022-07-24T08:51:13;7.22;;;6.40;;
19566;SDS011;9930;49.240;8.548;2022-07-24T08:53:41;6.35;;;5.90;;
19566;SDS011;9930;49.240;8.548;2022-07-24T08:56:12;6.80;;;6.30;;
19566;SDS011;9930;49.240;8.548;2022-07-24T08:58:39;6.10;;;5.70;;
19566;SDS011;9930;49.240;8.548;2022-07-24T09:01:06;6.40;;;5.90;;
19566;SDS011;9930;49.240;8.548;2022-07-24T09:03:42;6.28;;;5.78;;
19566;SDS011;9930;49.240;8.548;2022-07-24T09:06:13;5.57;;;5.13;;
19566;SDS011;9930;49.240;8.548;2022-07-24T09:08:40;6.00;;;5.50;;
19566;SDS011;9930;49.240;8.548;2022-07-24T09:11:07;5.90;;;5.50;;
19566;SDS011;9930;49.240;8.548;2022-07-24T09:13:36;6.32;;;5.75;;
19566;SDS011;9930;49.240;8.548;2022-07-24T09:16:21;6.80;;;5.50;;
19566;SDS011;9930;49.240;8.548;2022-07-24T09:19:01;6.18;;;5.78;;
19566;SDS011;9930;49.240;8.548;2022-07-24T09:21:33;6.30;;;5.80;;
19566;SDS011;9930;49.240;8.548;2022-07-24T09:24:12;6.30;;;5.90;;
19566;SDS011;9930;49.240;8.548;2022-07-24T09:26:45;6.03;;;5.63;;
19566;SDS011;9930;49.240;8.548;2022-07-24T09:29:15;7.30;;;6.72;;
19566;SDS011;9930;49.240;8.548;2022-07-24T09:32:02;6.50;;;6.00;;
19566;SDS011;9930;49.240;8.548;2022-07-24T09:34:37;6.35;;;5.85;;
19566;SDS011;9930;49.240;8.548;2022-07-24T09:37:07;6.72;;;6.22;;
19566;SDS011;9930;49.240;8.548;2022-07-24T09:39:35;6.20;;;5.80;;
19566;SDS011;9930;49.240;8.548;2022-07-24T09:42:02;6.18;;;5.75;;
19566;SDS011;9930;49.240;8.548;2022-07-24T09:44:31;6.18;;;5.78;;
19566;SDS011;9930;49.240;8.548;2022-07-24T09:47:02;6.57;;;5.97;;
19566;SDS011;9930;49.240;8.548;2022-07-24T09:49:33;5.78;;;5.38;;
19566;SDS011;9930;49.240;8.548;2022-07-24T09:54:30;5.75;;;5.35;;
19566;SDS011;9930;49.240;8.548;2022-07-24T09:57:14;5.90;;;5.50;;
19566;SDS011;9930;49.240;8.548;2022-07-24T10:00:00;5.88;;;5.47;;
19566;SDS011;9930;49.240;8.548;2022-07-24T10:02:31;5.90;;;5.50;;
19566;SDS011;9930;49.240;8.548;2022-07-24T10:05:00;5.95;;;5.45;;
19566;SDS011;9930;49.240;8.548;2022-07-24T10:07:31;5.90;;;5.50;;
19566;SDS011;9930;49.240;8.548;2022-07-24T10:09:58;5.60;;;5.22;;
19566;SDS011;9930;49.240;8.548;2022-07-24T10:12:27;5.95;;;5.55;;
19566;SDS011;9930;49.240;8.548;2022-07-24T10:14:59;5.80;;;5.40;;
19566;SDS011;9930;49.240;8.548;2022-07-24T10:20:41;6.03;;;5.50;;
19566;SDS011;9930;49.240;8.548;2022-07-24T10:28:39;6.00;;;5.60;;
19566;SDS011;9930;49.240;8.548;2022-07-24T10:31:16;5.82;;;5.43;;
19566;SDS011;9930;49.240;8.548;2022-07-24T10:33:45;5.60;;;5.10;;
19566;SDS011;9930;49.240;8.548;2022-07-24T10:36:23;5.80;;;5.25;;
19566;SDS011;9930;49.240;8.548;2022-07-24T10:39:00;5.30;;;4.95;;
19566;SDS011;9930;49.240;8.548;2022-07-24T10:41:41;5.13;;;4.72;;
19566;SDS011;9930;49.240;8.548;2022-07-24T10:44:19;5.28;;;4.88;;
19566;SDS011;9930;49.240;8.548;2022-07-24T10:47:05;5.85;;;5.10;;
19566;SDS011;9930;49.240;8.548;2022-07-24T10:49:46;5.47;;;5.07;;
19566;SDS011;9930;49.240;8.548;2022-07-24T10:57:54;5.25;;;4.78;;
19566;SDS011;9930;49.240;8.548;2022-07-24T11:00:45;5.20;;;4.85;;
19566;SDS011;9930;49.240;8.548;2022-07-24T11:03:17;5.68;;;5.28;;
19566;SDS011;9930;49.240;8.548;2022-07-24T11:06:05;5.95;;;5.55;;
19566;SDS011;9930;49.240;8.548;2022-07-24T11:13:46;4.80;;;4.40;;
19566;SDS011;9930;49.240;8.548;2022-07-24T11:16:18;4.75;;;4.43;;
19566;SDS011;9930;49.240;8.548;2022-07-24T11:21:28;4.80;;;4.40;;
19566;SDS011;9930;49.240;8.548;2022-07-24T11:29:35;4.15;;;3.85;;
19566;SDS011;9930;49.240;8.548;2022-07-24T11:32:09;4.18;;;3.88;;
19566;SDS011;9930;49.240;8.548;2022-07-24T11:34:42;4.32;;;4.03;;
19566;SDS011;9930;49.240;8.548;2022-07-24T11:37:10;4.60;;;4.20;;
19566;SDS011;9930;49.240;8.548;2022-07-24T11:39:37;4.38;;;4.07;;
19566;SDS011;9930;49.240;8.548;2022-07-24T11:42:06;4.22;;;3.92;;
19566;SDS011;9930;49.240;8.548;2022-07-24T11:44:38;4.60;;;4.30;;
19566;SDS011;9930;49.240;8.548;2022-07-24T11:47:14;5.07;;;4.68;;
19566;SDS011;9930;49.240;8.548;2022-07-24T11:49:46;4.38;;;4.07;;
19566;SDS011;9930;49.240;8.548;2022-07-24T11:52:31;4.45;;;4.15;;
19566;SDS011;9930;49.240;8.548;2022-07-24T11:55:04;3.90;;;3.70;;
19566;SDS011;9930;49.240;8.548;2022-07-24T11:57:32;4.75;;;4.35;;
19566;SDS011;9930;49.240;8.548;2022-07-24T12:00:04;4.38;;;3.55;;
19566;SDS011;9930;49.240;8.548;2022-07-24T12:02:36;4.60;;;4.30;;
19566;SDS011;9930;49.240;8.548;2022-07-24T12:05:28;4.55;;;4.25;;
19566;SDS011;9930;49.240;8.548;2022-07-24T12:08:04;3.90;;;3.70;;
19566;SDS011;9930;49.240;8.548;2022-07-24T12:10:47;4.15;;;3.85;;
19566;SDS011;9930;49.240;8.548;2022-07-24T12:13:29;4.65;;;3.90;;
19566;SDS011;9930;49.240;8.548;2022-07-24T12:15:58;4.40;;;4.10;;
19566;SDS011;9930;49.240;8.548;2022-07-24T12:18:27;3.95;;;3.65;;
19566;SDS011;9930;49.240;8.548;2022-07-24T12:20:57;4.00;;;3.70;;
19566;SDS011;9930;49.240;8.548;2022-07-24T12:23:28;4.13;;;3.83;;
19566;SDS011;9930;49.240;8.548;2022-07-24T12:25:54;4.30;;;4.00;;
19566;SDS011;9930;49.240;8.548;2022-07-24T12:28:25;3.80;;;3.50;;
19566;SDS011;9930;49.240;8.548;2022-07-24T12:30:56;3.88;;;3.67;;
19566;SDS011;9930;49.240;8.548;2022-07-24T12:33:32;4.03;;;3.75;;
19566;SDS011;9930;49.240;8.548;2022-07-24T12:36:07;3.95;;;3.70;;
19566;SDS011;9930;49.240;8.548;2022-07-24T12:38:51;3.67;;;3.42;;
19566;SDS011;9930;49.240;8.548;2022-07-24T12:41:28;3.95;;;3.65;;
19566;SDS011;9930;49.240;8.548;2022-07-24T12:44:03;4.10;;;3.80;;
19566;SDS011;9930;49.240;8.548;2022-07-24T12:46:34;3.67;;;3.38;;
19566;SDS011;9930;49.240;8.548;2022-07-24T12:49:06;3.90;;;3.60;;
19566;SDS011;9930;49.240;8.548;2022-07-24T12:54:45;3.92;;;3.70;;
19566;SDS011;9930;49.240;8.548;2022-07-24T12:57:12;3.53;;;3.28;;
19566;SDS011;9930;49.240;8.548;2022-07-24T13:02:12;3.65;;;3.45;;
19566;SDS011;9930;49.240;8.548;2022-07-24T13:04:51;3.78;;;3.47;;
19566;SDS011;9930;49.240;8.548;2022-07-24T13:07:22;3.40;;;3.20;;
19566;SDS011;9930;49.240;8.548;2022-07-24T13:09:52;3.72;;;3.53;;
19566;SDS011;9930;49.240;8.548;2022-07-24T13:12:22;3.45;;;3.25;;
19566;SDS011;9930;49.240;8.548;2022-07-24T13:14:50;3.38;;;3.17;;
19566;SDS011;9930;49.240;8.548;2022-07-24T13:17:16;3.58;;;3.38;;
19566;SDS011;9930;49.240;8.548;2022-07-24T13:19:50;3.78;;;3.53;;
19566;SDS011;9930;49.240;8.548;2022-07-24T13:22:17;3.70;;;3.50;;
19566;SDS011;9930;49.240;8.548;2022-07-24T13:24:44;4.18;;;3.80;;
19566;SDS011;9930;49.240;8.548;2022-07-24T13:27:13;3.83;;;3.53;;
19566;SDS011;9930;49.240;8.548;2022-07-24T13:29:39;3.45;;;3.25;;
19566;SDS011;9930;49.240;8.548;2022-07-24T13:32:05;3.92;;;3.55;;
19566;SDS011;9930;49.240;8.548;2022-07-24T13:34:31;3.97;;;3.67;;
19566;SDS011;9930;49.240;8.548;2022-07-24T13:36:58;3.65;;;3.35;;
19566;SDS011;9930;49.240;8.548;2022-07-24T13:39:27;4.03;;;3.72;;
19566;SDS011;9930;49.240;8.548;2022-07-24T13:41:55;4.10;;;3.80;;
19566;SDS011;9930;49.240;8.548;2022-07-24T13:44:24;3.97;;;3.67;;
19566;SDS011;9930;49.240;8.548;2022-07-24T13:46:50;3.80;;;3.60;;
19566;SDS011;9930;49.240;8.548;2022-07-24T13:49:20;4.07;;;3.78;;
19566;SDS011;9930;49.240;8.548;2022-07-24T13:51:46;3.80;;;3.50;;
19566;SDS011;9930;49.240;8.548;2022-07-24T13:54:12;4.88;;;3.88;;
19566;SDS011;9930;49.240;8.548;2022-07-24T13:56:38;4.10;;;3.90;;
19566;SDS011;9930;49.240;8.548;2022-07-24T13:59:04;4.47;;;4.07;;
19566;SDS011;9930;49.240;8.548;2022-07-24T14:01:33;3.90;;;3.60;;
19566;SDS011;9930;49.240;8.548;2022-07-24T14:03:59;3.85;;;3.55;;
19566;SDS011;9930;49.240;8.548;2022-07-24T14:06:25;3.70;;;3.50;;
19566;SDS011;9930;49.240;8.548;2022-07-24T14:08:55;3.85;;;3.55;;
19566;SDS011;9930;49.240;8.548;2022-07-24T14:11:22;3.88;;;3.67;;
19566;SDS011;9930;49.240;8.548;2022-07-24T14:13:49;3.83;;;3.53;;
19566;SDS011;9930;49.240;8.548;2022-07-24T14:16:15;3.67;;;3.45;;
19566;SDS011;9930;49.240;8.548;2022-07-24T14:18:41;3.85;;;3.55;;
19566;SDS011;9930;49.240;8.548;2022-07-24T14:21:09;4.03;;;3.75;;
19566;SDS011;9930;49.240;8.548;2022-07-24T14:23:35;3.90;;;3.70;;
19566;SDS011;9930;49.240;8.548;2022-07-24T14:26:01;4.03;;;3.72;;
19566;SDS011;9930;49.240;8.548;2022-07-24T14:28:30;4.40;;;4.00;;
19566;SDS011;9930;49.240;8.548;2022-07-24T14:30:58;3.72;;;3.53;;
19566;SDS011;9930;49.240;8.548;2022-07-24T14:33:25;3.90;;;3.60;;
19566;SDS011;9930;49.240;8.548;2022-07-24T14:35:59;3.78;;;3.53;;
19566;SDS011;9930;49.240;8.548;2022-07-24T14:38:31;3.47;;;3.20;;
19566;SDS011;9930;49.240;8.548;2022-07-24T14:40:56;3.90;;;3.60;;
19566;SDS011;9930;49.240;8.548;2022-07-24T14:43:22;3.90;;;3.70;;
19566;SDS011;9930;49.240;8.548;2022-07-24T14:45:49;3.65;;;3.35;;
19566;SDS011;9930;49.240;8.548;2022-07-24T14:48:15;3.90;;;3.60;;
19566;SDS011;9930;49.240;8.548;2022-07-24T14:50:41;4.03;;;3.72;;
19566;SDS011;9930;49.240;8.548;2022-07-24T14:53:07;4.10;;;3.80;;
19566;SDS011;9930;49.240;8.548;2022-07-24T14:55:33;5.03;;;4.72;;
19566;SDS011;9930;49.240;8.548;2022-07-24T14:57:58;4.20;;;4.00;;
19566;SDS011;9930;49.240;8.548;2022-07-24T15:00:28;4.30;;;4.00;;
19566;SDS011;9930;49.240;8.548;2022-07-24T15:02:59;3.90;;;3.58;;
19566;SDS011;9930;49.240;8.548;2022-07-24T15:05:28;3.80;;;3.50;;
19566;SDS011;9930;49.240;8.548;2022-07-24T15:07:54;4.15;;;3.88;;
19566;SDS011;9930;49.240;8.548;2022-07-24T15:10:25;4.22;;;3.97;;
19566;SDS011;9930;49.240;8.548;2022-07-24T15:12:55;4.00;;;3.70;;
19566;SDS011;9930;49.240;8.548;2022-07-24T15:15:24;4.30;;;4.00;;
19566;SDS011;9930;49.240;8.548;2022-07-24T15:17:59;4.25;;;3.95;;
19566;SDS011;9930;49.240;8.548;2022-07-24T15:20:29;4.32;;;4.03;;
19566;SDS011;9930;49.240;8.548;2022-07-24T15:22:55;4.57;;;3.92;;
19566;SDS011;9930;49.240;8.548;2022-07-24T15:25:20;4.50;;;4.10;;
19566;SDS011;9930;49.240;8.548;2022-07-24T15:27:46;4.55;;;4.22;;
19566;SDS011;9930;49.240;8.548;2022-07-24T15:30:15;4.50;;;4.20;;
19566;SDS011;9930;49.240;8.548;2022-07-24T15:32:43;3.88;;;3.58;;
19566;SDS011;9930;49.240;8.548;2022-07-24T15:35:09;4.10;;;3.80;;
19566;SDS011;9930;49.240;8.548;2022-07-24T15:37:38;3.92;;;3.63;;
19566;SDS011;9930;49.240;8.548;2022-07-24T15:40:04;4.63;;;4.15;;
19566;SDS011;9930;49.240;8.548;2022-07-24T15:42:30;4.55;;;4.20;;
19566;SDS011;9930;49.240;8.548;2022-07-24T15:45:00;4.43;;;4.03;;